Salt Flat, Texas
Current Conditions -  °F | °C
As of 10:51 AM on Friday 24 Oct 2014 (Local Time) from KGDP Reporting Station
Clear Clear  
Wind Chill: 68°   Ceiling: Unl
Heat Index: 68°   Visibility: 10mi
Dew Point: 51°   Wind: 14mph
Humidity: 55%   Direction: 250°WSW
Pressure: 30.35"   Gusts: NA
Location:  31.33°N, 104.47°W
Report Text: KGDP 241651Z AUTO 25012KT 10SM CLR 20/11 A3035 RMK AO2 SLP214 T02000106
Loading
Personal Weather Stations






























Interactive Weather Map
Tropical Storm Tracking
New forecast layout! Learn more

10-Day Weather Forecast

Advertisements
Track Severe Weather on mobile